createdAt,value
2018-12-01T00:00:19.979Z,7.10
2018-12-01T00:02:48.551Z,7.10
2018-12-01T00:05:17.098Z,7.10
2018-12-01T00:07:45.647Z,7.10
2018-12-01T00:10:14.164Z,7.20
2018-12-01T00:12:42.682Z,7.10
2018-12-01T00:15:14.179Z,7.10
2018-12-01T00:17:42.655Z,7.20
2018-12-01T00:20:15.371Z,7.30
2018-12-01T00:22:44.006Z,7.30
2018-12-01T00:25:12.578Z,7.20
2018-12-01T00:27:41.096Z,7.10
2018-12-01T00:30:13.764Z,7.00
2018-12-01T00:32:42.923Z,7.10
2018-12-01T00:35:12.617Z,7.20
2018-12-01T00:37:41.137Z,7.10
2018-12-01T00:40:17.251Z,7.00
2018-12-01T00:42:45.763Z,7.00
2018-12-01T00:45:17.875Z,7.00
2018-12-01T00:47:48.735Z,6.90
2018-12-01T00:50:18.284Z,6.90
2018-12-01T00:52:47.795Z,6.80
2018-12-01T00:55:17.389Z,6.80
2018-12-01T00:57:45.952Z,6.70
2018-12-01T01:00:27.048Z,6.70
2018-12-01T01:02:59.004Z,6.70
2018-12-01T01:05:30.163Z,6.70
2018-12-01T01:08:00.082Z,6.60
2018-12-01T01:10:34.633Z,6.60
2018-12-01T01:13:02.108Z,6.60
2018-12-01T01:15:32.217Z,6.50
2018-12-01T01:18:00.780Z,6.50
2018-12-01T01:20:30.682Z,6.50
2018-12-01T01:22:59.181Z,6.50
2018-12-01T01:25:27.724Z,6.50
2018-12-01T01:27:56.209Z,6.70
2018-12-01T01:30:24.921Z,6.70
2018-12-01T01:33:04.571Z,6.70
2018-12-01T01:35:33.174Z,6.70
2018-12-01T01:38:01.715Z,6.60
2018-12-01T01:40:30.208Z,6.60
2018-12-01T01:42:58.722Z,6.70
2018-12-01T01:45:27.203Z,6.70
2018-12-01T01:47:55.691Z,6.60
2018-12-01T01:50:24.192Z,6.70
2018-12-01T01:52:52.635Z,6.80
2018-12-01T01:55:21.172Z,6.80
2018-12-01T01:57:49.701Z,6.80
2018-12-01T02:00:21.099Z,6.80
2018-12-01T02:04:19.031Z,6.80
2018-12-01T02:06:47.507Z,6.80
2018-12-01T02:09:16.044Z,6.90
2018-12-01T02:11:44.549Z,6.90
2018-12-01T02:14:13.084Z,7.00
2018-12-01T02:16:41.515Z,6.90
2018-12-01T02:19:10.132Z,6.90
2018-12-01T02:21:39.156Z,6.90
2018-12-01T02:24:07.678Z,6.90
2018-12-01T02:26:36.182Z,7.00
2018-12-01T02:29:04.741Z,6.90
2018-12-01T02:31:33.243Z,6.90
2018-12-01T02:34:01.711Z,6.80
2018-12-01T02:36:30.195Z,6.80
2018-12-01T02:38:58.738Z,6.80
2018-12-01T02:41:27.287Z,6.90
2018-12-01T02:44:06.922Z,7.00
2018-12-01T02:46:46.493Z,7.00
2018-12-01T02:49:15.027Z,7.00
2018-12-01T02:51:43.469Z,7.00
2018-12-01T02:54:11.933Z,6.90
2018-12-01T02:56:40.405Z,7.00
2018-12-01T02:59:09.007Z,7.00
2018-12-01T03:01:37.487Z,6.90
2018-12-01T03:04:06.184Z,7.00
2018-12-01T03:06:34.637Z,7.00
2018-12-01T03:09:03.428Z,7.00
2018-12-01T03:11:31.870Z,6.90
2018-12-01T03:14:00.390Z,6.90
2018-12-01T03:16:29.021Z,6.90
2018-12-01T03:18:57.661Z,6.90
2018-12-01T03:21:26.166Z,6.80
2018-12-01T03:23:54.933Z,6.90
2018-12-01T03:26:23.492Z,6.80
2018-12-01T03:28:52.066Z,6.90
2018-12-01T03:31:20.597Z,7.00
2018-12-01T03:33:49.263Z,6.90
2018-12-01T03:36:17.939Z,6.90
2018-12-01T03:38:46.787Z,7.00
2018-12-01T03:41:15.534Z,7.00
2018-12-01T03:43:44.149Z,7.10
2018-12-01T03:46:13.010Z,7.10
2018-12-01T03:48:41.630Z,7.10
2018-12-01T03:51:10.377Z,7.20
2018-12-01T03:53:39.030Z,7.20
2018-12-01T03:56:07.828Z,7.20
2018-12-01T03:58:36.463Z,7.20
2018-12-01T04:01:05.220Z,7.30
2018-12-01T04:03:33.888Z,7.40
2018-12-01T04:06:03.145Z,7.40
2018-12-01T04:08:31.911Z,7.40
2018-12-01T04:11:00.480Z,7.40
2018-12-01T04:13:29.176Z,7.40
2018-12-01T04:15:57.817Z,7.40
2018-12-01T04:18:26.348Z,7.40
2018-12-01T04:20:54.911Z,7.40
2018-12-01T04:23:23.983Z,7.40
2018-12-01T04:25:52.917Z,7.40
2018-12-01T04:28:21.439Z,7.40
2018-12-01T04:30:50.088Z,7.40
2018-12-01T04:33:18.579Z,7.40
2018-12-01T04:35:47.227Z,7.40
2018-12-01T04:38:15.731Z,7.40
2018-12-01T04:40:44.228Z,7.40
2018-12-01T04:43:12.725Z,7.50
2018-12-01T04:45:41.258Z,7.40
2018-12-01T04:48:09.770Z,7.40
2018-12-01T04:50:38.277Z,7.40
2018-12-01T04:53:07.227Z,7.40
2018-12-01T04:55:35.719Z,7.40
2018-12-01T04:58:04.203Z,7.50
2018-12-01T05:00:32.651Z,7.50
2018-12-01T05:03:01.202Z,7.40
2018-12-01T05:05:29.694Z,7.40
2018-12-01T05:07:58.245Z,7.30
2018-12-01T05:10:26.720Z,7.30
2018-12-01T05:12:55.287Z,7.40
2018-12-01T05:15:23.869Z,7.40
2018-12-01T05:17:52.365Z,7.40
2018-12-01T05:20:22.893Z,7.40
2018-12-01T05:22:52.311Z,7.40
2018-12-01T05:25:20.855Z,7.40
2018-12-01T05:27:49.394Z,7.40
2018-12-01T05:30:17.906Z,7.40
2018-12-01T05:32:46.428Z,7.40
2018-12-01T05:35:19.558Z,7.40
2018-12-01T05:37:48.067Z,7.40
2018-12-01T05:40:16.572Z,7.30
2018-12-01T05:42:45.090Z,7.30
2018-12-01T05:45:21.048Z,7.40
2018-12-01T05:47:54.576Z,7.30
2018-12-01T05:50:24.522Z,7.30
2018-12-01T05:52:57.577Z,7.30
2018-12-01T05:55:26.230Z,7.30
2018-12-01T05:57:55.332Z,7.30
2018-12-01T06:00:23.807Z,7.30
2018-12-01T06:02:52.349Z,7.30
2018-12-01T06:05:21.194Z,7.20
2018-12-01T06:07:49.744Z,7.20
2018-12-01T06:10:21.517Z,7.20
2018-12-01T06:12:54.315Z,7.20
2018-12-01T06:15:22.881Z,7.10
2018-12-01T06:17:51.398Z,7.10
2018-12-01T06:20:22.646Z,7.10
2018-12-01T06:22:51.856Z,7.10
2018-12-01T06:25:23.436Z,7.10
2018-12-01T06:27:53.236Z,7.00
2018-12-01T06:30:21.824Z,7.10
2018-12-01T06:32:52.713Z,7.10
2018-12-01T06:35:21.239Z,7.10
2018-12-01T06:37:49.798Z,7.10
2018-12-01T06:40:20.274Z,7.10
2018-12-01T06:42:49.055Z,7.10
2018-12-01T06:45:18.953Z,7.10
2018-12-01T06:47:47.493Z,7.10
2018-12-01T06:50:20.516Z,7.10
2018-12-01T06:52:49.350Z,7.00
2018-12-01T06:55:17.849Z,7.10
2018-12-01T06:57:47.087Z,7.00
2018-12-01T07:00:24.146Z,7.00
2018-12-01T07:02:53.646Z,6.90
2018-12-01T07:05:22.210Z,6.90
2018-12-01T07:07:50.678Z,7.00
2018-12-01T07:10:21.161Z,6.80
2018-12-01T07:12:56.153Z,6.80
2018-12-01T07:15:33.603Z,6.80
2018-12-01T07:18:02.093Z,6.80
2018-12-01T07:20:30.574Z,6.80
2018-12-01T07:22:59.104Z,6.70
2018-12-01T07:25:28.463Z,6.70
2018-12-01T07:27:56.970Z,6.70
2018-12-01T07:30:25.461Z,6.60
2018-12-01T07:32:53.976Z,6.60
2018-12-01T07:35:22.480Z,6.60
2018-12-01T07:37:52.158Z,6.60
2018-12-01T07:40:20.621Z,6.60
2018-12-01T07:42:49.174Z,6.60
2018-12-01T07:45:17.687Z,6.50
2018-12-01T07:47:46.251Z,6.60
2018-12-01T07:50:15.974Z,6.60
2018-12-01T07:52:45.951Z,6.50
2018-12-01T07:55:14.462Z,6.60
2018-12-01T07:57:42.990Z,6.60
2018-12-01T08:00:13.668Z,6.50
2018-12-01T08:02:43.579Z,6.60
2018-12-01T08:05:12.395Z,6.60
2018-12-01T08:07:40.871Z,6.50
2018-12-01T08:10:11.090Z,6.60
2018-12-01T08:12:39.566Z,6.50
2018-12-01T08:15:13.111Z,6.50
2018-12-01T08:17:41.558Z,6.50
2018-12-01T08:20:11.242Z,6.50
2018-12-01T08:22:39.770Z,6.50
2018-12-01T08:25:13.982Z,6.50
2018-12-01T08:27:42.476Z,6.40
2018-12-01T08:30:17.328Z,6.50
2018-12-01T08:32:45.791Z,6.50
2018-12-01T08:35:14.273Z,6.50
2018-12-01T08:37:44.642Z,6.50
2018-12-01T08:40:15.659Z,6.60
2018-12-01T08:42:44.157Z,6.70
2018-12-01T08:45:13.366Z,6.70
2018-12-01T08:47:43.083Z,6.80
2018-12-01T08:50:12.914Z,6.80
2018-12-01T08:52:41.517Z,6.90
2018-12-01T08:55:11.536Z,7.00
2018-12-01T08:57:40.085Z,7.10
2018-12-01T09:00:13.920Z,7.20
2018-12-01T09:02:43.310Z,7.20
2018-12-01T09:05:11.810Z,7.20
2018-12-01T09:07:40.310Z,7.30
2018-12-01T09:10:09.924Z,7.50
2018-12-01T09:12:38.491Z,7.50
2018-12-01T09:15:14.527Z,7.50
2018-12-01T09:17:43.160Z,7.50
2018-12-01T09:20:12.607Z,7.50
2018-12-01T09:22:42.443Z,7.60
2018-12-01T09:25:13.209Z,7.60
2018-12-01T09:27:41.726Z,7.70
2018-12-01T09:30:20.322Z,7.70
2018-12-01T09:32:48.907Z,7.60
2018-12-01T09:35:17.426Z,7.50
2018-12-01T09:37:46.008Z,7.50
2018-12-01T09:40:17.675Z,7.50
2018-12-01T09:42:46.644Z,7.50
2018-12-01T09:45:17.212Z,7.40
2018-12-01T09:47:47.424Z,7.40
2018-12-01T09:50:16.278Z,7.40
2018-12-01T09:52:46.121Z,7.40
2018-12-01T09:55:16.724Z,7.40
2018-12-01T09:57:45.813Z,7.50
2018-12-01T10:00:18.662Z,7.40
2018-12-01T10:02:48.360Z,7.40
2018-12-01T10:05:18.024Z,7.50
2018-12-01T10:07:46.633Z,7.50
2018-12-01T10:10:19.758Z,7.60
2018-12-01T10:12:49.285Z,7.70
2018-12-01T10:15:19.871Z,7.90
2018-12-01T10:17:48.403Z,7.90
2018-12-01T10:20:19.294Z,7.90
2018-12-01T10:22:47.800Z,7.90
2018-12-01T10:25:17.353Z,8.00
2018-12-01T10:27:46.443Z,8.10
2018-12-01T10:30:19.909Z,7.90
2018-12-01T10:32:49.020Z,8.00
2018-12-01T10:35:18.742Z,8.10
2018-12-01T10:37:56.640Z,8.20
2018-12-01T10:40:25.154Z,8.40
2018-12-01T10:42:53.667Z,8.50
2018-12-01T10:51:51.817Z,8.60
2018-12-01T10:54:20.854Z,8.50
2018-12-01T10:56:49.446Z,8.50
2018-12-01T10:59:18.048Z,8.50
2018-12-01T11:02:55.610Z,8.40
2018-12-01T11:05:20.824Z,8.50
2018-12-01T11:07:49.361Z,8.50
2018-12-01T11:10:17.906Z,8.60
2018-12-01T11:12:46.391Z,8.60
2018-12-01T11:15:14.942Z,8.50
2018-12-01T11:17:43.458Z,8.60
2018-12-01T11:20:12.056Z,8.70
2018-12-01T11:22:40.624Z,8.70
2018-12-01T11:25:10.609Z,8.60
2018-12-01T11:27:39.331Z,8.60
2018-12-01T11:30:12.403Z,8.60
2018-12-01T11:32:41.057Z,8.60
2018-12-01T11:35:09.725Z,8.70
2018-12-01T11:37:38.357Z,8.70
2018-12-01T11:40:09.597Z,8.70
2018-12-01T11:42:38.201Z,8.70
2018-12-01T11:45:10.941Z,8.80
2018-12-01T11:47:39.555Z,8.80
2018-12-01T11:50:14.260Z,8.80
2018-12-01T11:52:42.829Z,8.80
2018-12-01T11:55:14.728Z,8.80
2018-12-01T11:57:43.325Z,8.80
2018-12-01T12:00:16.648Z,8.80
2018-12-01T12:02:45.361Z,8.90
2018-12-01T12:05:14.837Z,9.00
2018-12-01T12:07:54.654Z,9.00
2018-12-01T12:10:23.359Z,9.00
2018-12-01T12:12:51.899Z,9.10
2018-12-01T12:15:21.226Z,9.10
2018-12-01T12:17:53.063Z,9.00
2018-12-01T12:20:23.018Z,9.10
2018-12-01T12:22:51.515Z,9.10
2018-12-01T12:25:20.009Z,9.00
2018-12-01T12:27:48.605Z,8.90
2018-12-01T12:30:18.309Z,9.00
2018-12-01T12:32:47.149Z,9.10
2018-12-01T12:35:16.741Z,9.00
2018-12-01T12:37:45.314Z,9.10
2018-12-01T12:40:18.167Z,9.00
2018-12-01T12:42:46.836Z,9.10
2018-12-01T12:45:15.693Z,9.00
2018-12-01T12:47:44.571Z,9.00
2018-12-01T12:50:15.783Z,9.00
2018-12-01T12:52:45.958Z,9.10
2018-12-01T12:55:18.228Z,9.00
2018-12-01T12:57:46.809Z,9.00
2018-12-01T13:00:18.327Z,9.00
2018-12-01T13:02:50.885Z,9.00
2018-12-01T13:05:22.741Z,9.00
2018-12-01T13:07:51.318Z,9.10
2018-12-01T13:10:22.108Z,9.10
2018-12-01T13:12:51.792Z,9.00
2018-12-01T13:15:19.258Z,9.00
2018-12-01T13:17:47.795Z,9.10
2018-12-01T13:20:17.428Z,9.00
2018-12-01T13:22:46.975Z,9.10
2018-12-01T13:26:45.458Z,9.00
2018-12-01T13:29:14.063Z,9.10
2018-12-01T13:31:42.742Z,9.00
2018-12-01T13:34:11.347Z,8.90
2018-12-01T13:36:39.883Z,8.90
2018-12-01T13:39:09.887Z,8.90
2018-12-01T13:41:38.525Z,8.90
2018-12-01T13:44:07.083Z,8.90
2018-12-01T13:46:35.655Z,8.80
2018-12-01T13:49:04.312Z,8.70
2018-12-01T13:51:32.962Z,8.70
2018-12-01T13:54:01.517Z,8.70
2018-12-01T13:56:30.198Z,8.70
2018-12-01T13:58:58.897Z,8.60
2018-12-01T14:01:27.432Z,8.60
2018-12-01T14:04:00.366Z,8.60
2018-12-01T14:06:28.973Z,8.50
2018-12-01T14:08:57.603Z,8.50
2018-12-01T14:11:26.228Z,8.50
2018-12-01T14:13:54.816Z,8.60
2018-12-01T14:16:23.316Z,8.60
2018-12-01T14:18:51.877Z,8.50
2018-12-01T14:21:20.388Z,8.40
2018-12-01T14:23:49.016Z,8.50
2018-12-01T14:26:17.619Z,8.40
2018-12-01T14:28:46.187Z,8.50
2018-12-01T14:31:14.969Z,8.50
2018-12-01T14:33:43.610Z,8.50
2018-12-01T14:36:12.183Z,8.50
2018-12-01T14:38:40.724Z,8.50
2018-12-01T14:41:09.240Z,8.40
2018-12-01T14:43:38.599Z,8.40
2018-12-01T14:46:07.169Z,8.30
2018-12-01T14:48:35.969Z,8.40
2018-12-01T14:51:04.533Z,8.40
2018-12-01T14:53:33.137Z,8.50
2018-12-01T14:56:01.756Z,8.50
2018-12-01T14:58:30.217Z,8.50
2018-12-01T15:00:58.798Z,8.40
2018-12-01T15:03:27.369Z,8.50
2018-12-01T15:05:55.869Z,8.40
2018-12-01T15:08:24.403Z,8.50
2018-12-01T15:10:52.959Z,8.50
2018-12-01T15:13:21.544Z,8.50
2018-12-01T15:15:51.061Z,8.50
2018-12-01T15:18:20.405Z,8.40
2018-12-01T15:20:49.043Z,8.50
2018-12-01T15:23:17.972Z,8.50
2018-12-01T15:25:46.501Z,8.50
2018-12-01T15:28:14.997Z,8.60
2018-12-01T15:30:43.531Z,8.50
2018-12-01T15:33:13.338Z,8.40
2018-12-01T15:35:44.450Z,8.40
2018-12-01T15:38:14.285Z,8.40
2018-12-01T15:40:45.545Z,8.50
2018-12-01T15:43:14.083Z,8.40
2018-12-01T15:45:42.639Z,8.40
2018-12-01T15:48:11.166Z,8.40
2018-12-01T15:50:39.716Z,8.40
2018-12-01T15:53:11.572Z,8.50
2018-12-01T15:55:40.142Z,8.40
2018-12-01T15:58:08.854Z,8.40
2018-12-01T16:00:38.177Z,8.40
2018-12-01T16:03:07.241Z,8.40
2018-12-01T16:05:35.743Z,8.50
2018-12-01T16:08:04.284Z,8.50
2018-12-01T16:10:32.859Z,8.40
2018-12-01T16:13:08.149Z,8.50
2018-12-01T16:15:38.955Z,8.30
2018-12-01T16:18:09.156Z,8.20
2018-12-01T16:20:37.651Z,8.30
2018-12-01T16:23:06.249Z,8.30
2018-12-01T16:25:34.816Z,8.30
2018-12-01T16:28:03.316Z,8.20
2018-12-01T16:30:34.296Z,8.30
2018-12-01T16:33:08.029Z,8.20
2018-12-01T16:35:36.524Z,8.20
2018-12-01T16:38:05.928Z,8.20
2018-12-01T16:40:40.992Z,8.20
2018-12-01T16:43:11.177Z,8.20
2018-12-01T16:45:40.204Z,8.10
2018-12-01T16:48:08.721Z,8.10
2018-12-01T16:50:37.230Z,8.10
2018-12-01T16:53:07.376Z,8.20
2018-12-01T16:55:35.918Z,8.10
2018-12-01T16:58:04.544Z,8.10
2018-12-01T17:00:33.100Z,8.10
2018-12-01T17:03:01.658Z,8.10
2018-12-01T17:05:31.944Z,8.10
2018-12-01T17:08:00.442Z,8.20
2018-12-01T17:10:28.967Z,8.20
2018-12-01T17:12:58.421Z,8.20
2018-12-01T17:15:26.620Z,8.20
2018-12-01T17:17:55.294Z,8.10
2018-12-01T17:20:23.988Z,8.20
2018-12-01T17:22:54.929Z,8.20
2018-12-01T17:25:23.467Z,8.30
2018-12-01T17:27:53.026Z,8.30
2018-12-01T17:30:26.591Z,8.20
2018-12-01T17:32:55.851Z,8.20
2018-12-01T17:35:26.650Z,8.30
2018-12-01T17:37:56.707Z,8.20
2018-12-01T17:40:36.047Z,8.20
2018-12-01T17:43:06.072Z,8.20
2018-12-01T17:45:34.578Z,8.30
2018-12-01T17:48:03.261Z,8.30
2018-12-01T17:50:31.846Z,8.30
2018-12-01T17:53:00.351Z,8.30
2018-12-01T17:55:29.720Z,8.30
2018-12-01T17:57:58.253Z,8.30
2018-12-01T18:00:28.052Z,8.40
2018-12-01T18:02:59.058Z,8.40
2018-12-01T18:05:34.311Z,8.30
2018-12-01T18:08:03.202Z,8.40
2018-12-01T18:10:31.667Z,8.40
2018-12-01T18:13:00.162Z,8.40
2018-12-01T18:15:28.708Z,8.40
2018-12-01T18:17:57.209Z,8.40
2018-12-01T18:20:25.738Z,8.40
2018-12-01T18:22:56.510Z,8.40
2018-12-01T18:25:25.362Z,8.50
2018-12-01T18:27:55.381Z,8.50
2018-12-01T18:30:32.899Z,8.50
2018-12-01T18:33:03.630Z,8.50
2018-12-01T18:35:32.153Z,8.60
2018-12-01T18:38:00.669Z,8.60
2018-12-01T18:40:29.129Z,8.60
2018-12-01T18:42:57.699Z,8.60
2018-12-01T18:45:26.245Z,8.60
2018-12-01T18:47:54.762Z,8.60
2018-12-01T18:50:23.271Z,8.60
2018-12-01T18:52:57.164Z,8.70
2018-12-01T18:55:26.849Z,8.70
2018-12-01T18:57:55.440Z,8.70
2018-12-01T19:00:26.702Z,8.70
2018-12-01T19:02:55.173Z,8.70
2018-12-01T19:05:23.748Z,8.70
2018-12-01T19:07:52.290Z,8.70
2018-12-01T19:10:20.859Z,8.80
2018-12-01T19:12:49.375Z,8.80
2018-12-01T19:15:18.464Z,8.80
2018-12-01T19:17:48.297Z,8.80
2018-12-01T19:20:17.769Z,8.80
2018-12-01T19:22:47.510Z,8.80
2018-12-01T19:25:18.082Z,8.80
2018-12-01T19:27:46.730Z,8.80
2018-12-01T19:30:17.312Z,8.80
2018-12-01T19:32:48.053Z,8.90
2018-12-01T19:35:17.280Z,8.90
2018-12-01T19:37:47.221Z,8.90
2018-12-01T19:40:19.787Z,9.00
2018-12-01T19:42:48.291Z,8.90
2018-12-01T19:45:16.810Z,9.00
2018-12-01T19:47:45.380Z,9.00
2018-12-01T19:50:18.702Z,8.90
2018-12-01T19:52:47.246Z,9.00
2018-12-01T19:55:16.162Z,9.00
2018-12-01T19:57:45.583Z,9.00
2018-12-01T20:00:15.306Z,9.00
2018-12-01T20:02:43.881Z,9.00
2018-12-01T20:05:13.661Z,9.00
2018-12-01T20:07:42.505Z,9.00
2018-12-01T20:10:19.265Z,9.00
2018-12-01T20:12:52.473Z,9.00
2018-12-01T20:15:33.632Z,9.00
2018-12-01T20:18:04.504Z,9.00
2018-12-01T20:20:33.637Z,9.00
2018-12-01T20:23:02.265Z,9.00
2018-12-01T20:25:30.800Z,9.00
2018-12-01T20:27:59.409Z,9.00
2018-12-01T20:30:27.987Z,9.10
2018-12-01T20:32:56.533Z,9.10
2018-12-01T20:35:28.089Z,9.10
2018-12-01T20:38:15.686Z,9.10
2018-12-01T20:40:44.260Z,9.10
2018-12-01T20:43:12.799Z,9.20
2018-12-01T20:45:41.352Z,9.20
2018-12-01T20:48:09.868Z,9.20
2018-12-01T20:50:38.307Z,9.20
2018-12-01T20:53:07.775Z,9.20
2018-12-01T20:55:36.331Z,9.20
2018-12-01T20:58:06.980Z,9.20
2018-12-01T21:00:35.486Z,9.20
2018-12-01T21:03:04.035Z,9.20
2018-12-01T21:05:32.541Z,9.20
2018-12-01T21:08:02.482Z,9.20
2018-12-01T21:10:32.092Z,9.30
2018-12-01T21:13:03.059Z,9.20
2018-12-01T21:15:31.573Z,9.30
2018-12-01T21:18:01.105Z,9.30
2018-12-01T21:20:29.577Z,9.30
2018-12-01T21:22:58.105Z,9.30
2018-12-01T21:25:29.257Z,9.30
2018-12-01T21:27:59.687Z,9.40
2018-12-01T21:30:28.990Z,9.40
2018-12-01T21:33:00.341Z,9.40
2018-12-01T21:35:28.832Z,9.30
2018-12-01T21:37:57.404Z,9.30
2018-12-01T21:40:25.948Z,9.30
2018-12-01T21:42:54.439Z,9.30
2018-12-01T21:45:23.013Z,9.40
2018-12-01T21:47:51.521Z,9.40
2018-12-01T21:50:21.421Z,9.40
2018-12-01T21:52:53.100Z,9.40
2018-12-01T21:55:21.985Z,9.40
2018-12-01T21:57:51.134Z,9.40
2018-12-01T22:00:22.725Z,9.40
2018-12-01T22:02:53.159Z,9.40
2018-12-01T22:05:23.509Z,9.40
2018-12-01T22:07:52.031Z,9.50
2018-12-01T22:10:20.561Z,9.50
2018-12-01T22:12:49.051Z,9.50
2018-12-01T22:15:18.968Z,9.50
2018-12-01T22:17:47.636Z,9.50
2018-12-01T22:20:18.449Z,9.50
2018-12-01T22:22:46.971Z,9.50
2018-12-01T22:25:15.531Z,9.50
2018-12-01T22:27:44.099Z,9.50
2018-12-01T22:30:19.659Z,9.60
2018-12-01T22:32:52.697Z,9.70
2018-12-01T22:35:24.220Z,9.60
2018-12-01T22:37:53.469Z,9.50
2018-12-01T22:40:26.109Z,9.50
2018-12-01T22:42:58.148Z,9.50
2018-12-01T22:45:26.645Z,9.50
2018-12-01T22:47:55.168Z,9.50
2018-12-01T22:50:23.751Z,9.50
2018-12-01T22:52:53.100Z,9.50
2018-12-01T22:55:23.857Z,9.50
2018-12-01T22:57:55.677Z,9.50
2018-12-01T23:00:30.004Z,9.50
2018-12-01T23:02:58.553Z,9.50
2018-12-01T23:05:27.095Z,9.50
2018-12-01T23:07:55.610Z,9.50
2018-12-01T23:10:24.403Z,9.50
2018-12-01T23:12:52.965Z,9.50
2018-12-01T23:15:21.442Z,9.50
2018-12-01T23:17:49.984Z,9.60
2018-12-01T23:20:19.778Z,9.50
2018-12-01T23:22:49.078Z,9.50
2018-12-01T23:25:17.685Z,9.60
2018-12-01T23:27:46.213Z,9.60
2018-12-01T23:30:17.038Z,9.50
2018-12-01T23:32:47.115Z,9.60
2018-12-01T23:35:15.683Z,9.50
2018-12-01T23:37:44.181Z,9.50
2018-12-01T23:40:13.499Z,9.50
2018-12-01T23:42:42.241Z,9.50
2018-12-01T23:45:19.313Z,9.50
2018-12-01T23:47:48.288Z,9.50
2018-12-01T23:50:22.382Z,9.50
2018-12-01T23:52:52.896Z,9.50
2018-12-01T23:55:21.425Z,9.50
2018-12-01T23:57:49.940Z,9.50
